sensor_id;sensor_type;location;lat;lon;timestamp;pressure;altitude;pressure_sealevel;temperature;humidity
77005;BME280;67261;53.132;18.006;2023-03-29T00:01:17;101716.61;;;-1.20;60.28
77005;BME280;67261;53.132;18.006;2023-03-29T00:03:43;101716.29;;;-1.21;60.25
77005;BME280;67261;53.132;18.006;2023-03-29T00:06:10;101716.50;;;-1.23;60.32
77005;BME280;67261;53.132;18.006;2023-03-29T00:08:40;101723.89;;;-1.25;60.33
77005;BME280;67261;53.132;18.006;2023-03-29T00:11:07;101726.98;;;-1.24;60.61
77005;BME280;67261;53.132;18.006;2023-03-29T00:13:33;101726.65;;;-1.25;60.36
77005;BME280;67261;53.132;18.006;2023-03-29T00:16:00;101728.77;;;-1.26;60.64
77005;BME280;67261;53.132;18.006;2023-03-29T00:18:26;101727.40;;;-1.26;60.55
77005;BME280;67261;53.132;18.006;2023-03-29T00:20:55;101727.59;;;-1.27;60.71
77005;BME280;67261;53.132;18.006;2023-03-29T00:23:21;101727.80;;;-1.28;60.78
77005;BME280;67261;53.132;18.006;2023-03-29T00:25:48;101724.23;;;-1.30;60.75
77005;BME280;67261;53.132;18.006;2023-03-29T00:28:14;101722.21;;;-1.32;61.01
77005;BME280;67261;53.132;18.006;2023-03-29T00:30:41;101719.67;;;-1.33;61.01
77005;BME280;67261;53.132;18.006;2023-03-29T00:33:08;101715.60;;;-1.36;61.09
77005;BME280;67261;53.132;18.006;2023-03-29T00:35:37;101709.75;;;-1.38;61.13
77005;BME280;67261;53.132;18.006;2023-03-29T00:38:04;101710.65;;;-1.39;61.21
77005;BME280;67261;53.132;18.006;2023-03-29T00:40:32;101709.48;;;-1.40;61.26
77005;BME280;67261;53.132;18.006;2023-03-29T00:42:59;101711.08;;;-1.40;61.39
77005;BME280;67261;53.132;18.006;2023-03-29T00:45:27;101707.27;;;-1.41;61.24
77005;BME280;67261;53.132;18.006;2023-03-29T00:47:59;101706.47;;;-1.43;61.28
77005;BME280;67261;53.132;18.006;2023-03-29T00:50:28;101709.10;;;-1.44;61.45
77005;BME280;67261;53.132;18.006;2023-03-29T00:55:33;101709.41;;;-1.48;61.04
77005;BME280;67261;53.132;18.006;2023-03-29T00:58:00;101707.36;;;-1.49;61.08
77005;BME280;67261;53.132;18.006;2023-03-29T01:00:34;101705.85;;;-1.50;60.98
77005;BME280;67261;53.132;18.006;2023-03-29T01:03:07;101702.95;;;-1.51;61.14
77005;BME280;67261;53.132;18.006;2023-03-29T01:05:46;101701.59;;;-1.52;61.15
77005;BME280;67261;53.132;18.006;2023-03-29T01:08:21;101703.52;;;-1.53;61.27
77005;BME280;67261;53.132;18.006;2023-03-29T01:11:16;101703.40;;;-1.55;61.31
77005;BME280;67261;53.132;18.006;2023-03-29T01:13:48;101696.53;;;-1.57;61.06
77005;BME280;67261;53.132;18.006;2023-03-29T01:16:17;101694.39;;;-1.60;60.94
77005;BME280;67261;53.132;18.006;2023-03-29T01:18:45;101695.67;;;-1.62;61.10
77005;BME280;67261;53.132;18.006;2023-03-29T01:21:31;101697.02;;;-1.61;61.18
77005;BME280;67261;53.132;18.006;2023-03-29T01:27:04;101688.00;;;-1.56;61.28
77005;BME280;67261;53.132;18.006;2023-03-29T01:29:47;101687.91;;;-1.53;61.21
77005;BME280;67261;53.132;18.006;2023-03-29T01:35:05;101687.19;;;-1.53;61.24
77005;BME280;67261;53.132;18.006;2023-03-29T01:37:42;101687.95;;;-1.55;61.26
77005;BME280;67261;53.132;18.006;2023-03-29T01:40:10;101685.36;;;-1.55;61.15
77005;BME280;67261;53.132;18.006;2023-03-29T01:42:45;101682.11;;;-1.56;61.19
77005;BME280;67261;53.132;18.006;2023-03-29T01:48:05;101678.51;;;-1.62;61.39
77005;BME280;67261;53.132;18.006;2023-03-29T01:50:52;101680.72;;;-1.66;61.30
77005;BME280;67261;53.132;18.006;2023-03-29T01:53:29;101677.70;;;-1.69;61.40
77005;BME280;67261;53.132;18.006;2023-03-29T01:56:02;101672.08;;;-1.72;61.27
77005;BME280;67261;53.132;18.006;2023-03-29T01:58:32;101670.77;;;-1.74;61.48
77005;BME280;67261;53.132;18.006;2023-03-29T02:01:02;101673.09;;;-1.76;61.45
77005;BME280;67261;53.132;18.006;2023-03-29T02:03:31;101669.19;;;-1.78;61.40
77005;BME280;67261;53.132;18.006;2023-03-29T02:06:00;101670.33;;;-1.81;61.52
77005;BME280;67261;53.132;18.006;2023-03-29T02:08:28;101675.05;;;-1.82;61.47
77005;BME280;67261;53.132;18.006;2023-03-29T02:10:56;101669.40;;;-1.85;61.66
77005;BME280;67261;53.132;18.006;2023-03-29T02:13:22;101667.20;;;-1.86;61.72
77005;BME280;67261;53.132;18.006;2023-03-29T02:15:49;101662.59;;;-1.88;61.68
77005;BME280;67261;53.132;18.006;2023-03-29T02:18:16;101666.82;;;-1.90;61.83
77005;BME280;67261;53.132;18.006;2023-03-29T02:20:46;101669.17;;;-1.94;61.85
77005;BME280;67261;53.132;18.006;2023-03-29T02:23:21;101667.54;;;-1.97;61.88
77005;BME280;67261;53.132;18.006;2023-03-29T02:25:50;101672.84;;;-1.99;61.82
77005;BME280;67261;53.132;18.006;2023-03-29T02:28:24;101676.92;;;-2.02;61.90
77005;BME280;67261;53.132;18.006;2023-03-29T02:30:59;101682.04;;;-2.05;61.84
77005;BME280;67261;53.132;18.006;2023-03-29T02:36:27;101678.27;;;-2.11;62.02
77005;BME280;67261;53.132;18.006;2023-03-29T02:38:57;101679.19;;;-2.13;62.27
77005;BME280;67261;53.132;18.006;2023-03-29T02:41:25;101676.29;;;-2.14;62.40
77005;BME280;67261;53.132;18.006;2023-03-29T02:43:52;101676.45;;;-2.14;62.55
77005;BME280;67261;53.132;18.006;2023-03-29T02:46:22;101680.95;;;-2.14;62.54
77005;BME280;67261;53.132;18.006;2023-03-29T02:48:49;101676.12;;;-2.14;62.44
77005;BME280;67261;53.132;18.006;2023-03-29T02:51:20;101677.96;;;-2.13;62.46
77005;BME280;67261;53.132;18.006;2023-03-29T02:54:00;101677.52;;;-2.09;62.44
77005;BME280;67261;53.132;18.006;2023-03-29T02:56:29;101670.13;;;-2.06;62.34
77005;BME280;67261;53.132;18.006;2023-03-29T02:58:56;101668.35;;;-2.05;62.34
77005;BME280;67261;53.132;18.006;2023-03-29T03:01:22;101667.30;;;-2.05;62.47
77005;BME280;67261;53.132;18.006;2023-03-29T03:03:49;101662.91;;;-2.03;62.48
77005;BME280;67261;53.132;18.006;2023-03-29T03:06:15;101663.24;;;-2.03;62.55
77005;BME280;67261;53.132;18.006;2023-03-29T03:08:43;101664.27;;;-2.02;62.42
77005;BME280;67261;53.132;18.006;2023-03-29T03:11:09;101658.95;;;-2.04;62.58
77005;BME280;67261;53.132;18.006;2023-03-29T03:13:35;101657.93;;;-2.10;62.60
77005;BME280;67261;53.132;18.006;2023-03-29T03:16:02;101664.09;;;-2.13;62.65
77005;BME280;67261;53.132;18.006;2023-03-29T03:18:28;101662.99;;;-2.16;62.59
77005;BME280;67261;53.132;18.006;2023-03-29T03:22:23;101663.77;;;-2.18;62.61
77005;BME280;67261;53.132;18.006;2023-03-29T03:24:55;101660.26;;;-2.22;62.56
77005;BME280;67261;53.132;18.006;2023-03-29T03:27:22;101660.66;;;-2.24;62.75
77005;BME280;67261;53.132;18.006;2023-03-29T03:29:49;101664.84;;;-2.25;62.68
77005;BME280;67261;53.132;18.006;2023-03-29T03:32:45;101666.30;;;-2.27;62.70
77005;BME280;67261;53.132;18.006;2023-03-29T03:35:35;101663.95;;;-2.29;62.72
77005;BME280;67261;53.132;18.006;2023-03-29T03:38:04;101670.40;;;-2.30;62.57
77005;BME280;67261;53.132;18.006;2023-03-29T03:40:31;101665.11;;;-2.32;62.67
77005;BME280;67261;53.132;18.006;2023-03-29T03:42:59;101662.71;;;-2.34;62.86
77005;BME280;67261;53.132;18.006;2023-03-29T03:45:26;101659.70;;;-2.37;62.94
77005;BME280;67261;53.132;18.006;2023-03-29T03:48:16;101657.02;;;-2.40;62.95
77005;BME280;67261;53.132;18.006;2023-03-29T03:50:53;101655.66;;;-2.41;63.13
77005;BME280;67261;53.132;18.006;2023-03-29T03:53:21;101654.86;;;-2.43;63.01
77005;BME280;67261;53.132;18.006;2023-03-29T03:56:08;101654.42;;;-2.46;63.16
77005;BME280;67261;53.132;18.006;2023-03-29T03:58:39;101656.58;;;-2.48;63.33
77005;BME280;67261;53.132;18.006;2023-03-29T04:01:07;101652.83;;;-2.50;63.30
77005;BME280;67261;53.132;18.006;2023-03-29T04:03:39;101654.37;;;-2.55;63.30
77005;BME280;67261;53.132;18.006;2023-03-29T04:06:08;101651.20;;;-2.58;63.40
77005;BME280;67261;53.132;18.006;2023-03-29T04:08:58;101650.60;;;-2.61;63.57
77005;BME280;67261;53.132;18.006;2023-03-29T04:11:35;101648.07;;;-2.63;63.49
77005;BME280;67261;53.132;18.006;2023-03-29T04:14:03;101647.90;;;-2.63;63.42
77005;BME280;67261;53.132;18.006;2023-03-29T04:17:05;101634.73;;;-2.69;63.42
77005;BME280;67261;53.132;18.006;2023-03-29T04:19:51;101643.96;;;-2.65;63.60
77005;BME280;67261;53.132;18.006;2023-03-29T04:22:19;101642.66;;;-2.62;63.66
77005;BME280;67261;53.132;18.006;2023-03-29T04:24:46;101644.33;;;-2.60;63.65
77005;BME280;67261;53.132;18.006;2023-03-29T04:27:31;101642.67;;;-2.58;63.67
77005;BME280;67261;53.132;18.006;2023-03-29T04:30:00;101642.63;;;-2.56;63.59
77005;BME280;67261;53.132;18.006;2023-03-29T04:32:50;101642.02;;;-2.54;63.59
77005;BME280;67261;53.132;18.006;2023-03-29T04:35:19;101644.21;;;-2.51;63.50
77005;BME280;67261;53.132;18.006;2023-03-29T04:37:46;101644.09;;;-2.48;63.36
77005;BME280;67261;53.132;18.006;2023-03-29T04:40:14;101642.48;;;-2.46;63.40
77005;BME280;67261;53.132;18.006;2023-03-29T04:43:04;101640.77;;;-2.46;63.39
77005;BME280;67261;53.132;18.006;2023-03-29T04:45:32;101640.13;;;-2.43;63.27
77005;BME280;67261;53.132;18.006;2023-03-29T04:48:07;101636.86;;;-2.38;63.44
77005;BME280;67261;53.132;18.006;2023-03-29T04:50:34;101636.24;;;-2.35;63.34
77005;BME280;67261;53.132;18.006;2023-03-29T04:53:02;101637.17;;;-2.32;63.25
77005;BME280;67261;53.132;18.006;2023-03-29T04:55:30;101628.36;;;-2.28;63.23
77005;BME280;67261;53.132;18.006;2023-03-29T05:09:06;101615.57;;;-0.12;59.95
77005;BME280;67261;53.132;18.006;2023-03-29T05:12:00;101606.41;;;0.96;58.41
77005;BME280;67261;53.132;18.006;2023-03-29T05:14:29;101602.16;;;2.63;56.42
77005;BME280;67261;53.132;18.006;2023-03-29T05:16:57;101594.18;;;4.13;53.70
77005;BME280;67261;53.132;18.006;2023-03-29T05:19:24;101594.20;;;5.47;52.19
77005;BME280;67261;53.132;18.006;2023-03-29T05:22:10;101587.23;;;6.65;49.90
77005;BME280;67261;53.132;18.006;2023-03-29T05:24:37;101586.60;;;7.84;48.97
77005;BME280;67261;53.132;18.006;2023-03-29T05:27:15;101590.27;;;9.04;47.27
77005;BME280;67261;53.132;18.006;2023-03-29T05:29:44;101595.92;;;9.84;45.63
77005;BME280;67261;53.132;18.006;2023-03-29T05:32:29;101586.96;;;10.64;44.26
77005;BME280;67261;53.132;18.006;2023-03-29T05:34:56;101581.46;;;11.26;43.29
77005;BME280;67261;53.132;18.006;2023-03-29T05:37:23;101585.05;;;11.97;42.61
77005;BME280;67261;53.132;18.006;2023-03-29T05:39:54;101580.84;;;12.75;41.32
77005;BME280;67261;53.132;18.006;2023-03-29T05:42:26;101579.04;;;13.48;40.33
77005;BME280;67261;53.132;18.006;2023-03-29T05:44:57;101582.65;;;14.18;39.11
77005;BME280;67261;53.132;18.006;2023-03-29T05:47:24;101575.59;;;14.80;38.39
77005;BME280;67261;53.132;18.006;2023-03-29T05:49:51;101574.14;;;15.34;37.16
77005;BME280;67261;53.132;18.006;2023-03-29T05:52:23;101573.30;;;15.75;36.56
77005;BME280;67261;53.132;18.006;2023-03-29T05:54:50;101568.09;;;16.20;36.00
77005;BME280;67261;53.132;18.006;2023-03-29T05:57:18;101566.95;;;16.69;34.84
77005;BME280;67261;53.132;18.006;2023-03-29T05:59:45;101560.60;;;17.15;34.47
77005;BME280;67261;53.132;18.006;2023-03-29T06:02:13;101560.79;;;17.47;33.58
77005;BME280;67261;53.132;18.006;2023-03-29T06:04:45;101563.64;;;17.77;32.56
77005;BME280;67261;53.132;18.006;2023-03-29T06:07:32;101565.21;;;18.05;31.95
77005;BME280;67261;53.132;18.006;2023-03-29T06:10:22;101561.87;;;18.12;30.67
77005;BME280;67261;53.132;18.006;2023-03-29T06:12:53;101557.34;;;18.21;30.38
77005;BME280;67261;53.132;18.006;2023-03-29T06:15:22;101557.20;;;18.58;29.87
77005;BME280;67261;53.132;18.006;2023-03-29T06:17:55;101555.11;;;18.92;29.13
77005;BME280;67261;53.132;18.006;2023-03-29T06:20:23;101551.68;;;19.27;28.69
77005;BME280;67261;53.132;18.006;2023-03-29T06:22:53;101551.75;;;19.50;27.62
77005;BME280;67261;53.132;18.006;2023-03-29T06:25:22;101556.63;;;19.19;26.98
77005;BME280;67261;53.132;18.006;2023-03-29T06:27:51;101551.02;;;18.92;26.23
77005;BME280;67261;53.132;18.006;2023-03-29T06:30:18;101559.48;;;18.53;26.27
77005;BME280;67261;53.132;18.006;2023-03-29T06:32:50;101560.36;;;18.57;26.68
77005;BME280;67261;53.132;18.006;2023-03-29T06:35:49;101557.35;;;18.99;25.39
77005;BME280;67261;53.132;18.006;2023-03-29T06:38:20;101553.89;;;18.72;25.47
77005;BME280;67261;53.132;18.006;2023-03-29T06:41:06;101548.84;;;18.94;25.13
77005;BME280;67261;53.132;18.006;2023-03-29T06:44:00;101554.17;;;18.71;25.04
77005;BME280;67261;53.132;18.006;2023-03-29T06:46:33;101553.92;;;18.64;24.32
77005;BME280;67261;53.132;18.006;2023-03-29T06:49:04;101549.27;;;18.50;24.07
77005;BME280;67261;53.132;18.006;2023-03-29T06:51:44;101545.16;;;18.57;24.24
77005;BME280;67261;53.132;18.006;2023-03-29T06:54:13;101540.63;;;18.63;23.68
77005;BME280;67261;53.132;18.006;2023-03-29T06:56:49;101536.26;;;18.68;23.63
77005;BME280;67261;53.132;18.006;2023-03-29T06:59:18;101534.45;;;18.81;23.28
77005;BME280;67261;53.132;18.006;2023-03-29T07:01:55;101533.02;;;18.93;22.92
77005;BME280;67261;53.132;18.006;2023-03-29T07:04:36;101524.48;;;19.17;22.52
77005;BME280;67261;53.132;18.006;2023-03-29T07:07:17;101523.30;;;19.15;22.27
77005;BME280;67261;53.132;18.006;2023-03-29T07:09:55;101525.31;;;19.03;22.69
77005;BME280;67261;53.132;18.006;2023-03-29T07:12:41;101519.02;;;19.42;22.04
77005;BME280;67261;53.132;18.006;2023-03-29T07:15:11;101516.91;;;19.50;22.14
77005;BME280;67261;53.132;18.006;2023-03-29T07:18:02;101514.41;;;19.54;21.84
77005;BME280;67261;53.132;18.006;2023-03-29T07:20:34;101516.61;;;19.18;21.67
77005;BME280;67261;53.132;18.006;2023-03-29T07:23:09;101518.16;;;18.77;21.71
77005;BME280;67261;53.132;18.006;2023-03-29T07:25:37;101520.23;;;18.55;21.64
77005;BME280;67261;53.132;18.006;2023-03-29T07:28:05;101515.87;;;18.54;21.67
77005;BME280;67261;53.132;18.006;2023-03-29T07:30:37;101512.51;;;18.59;21.42
77005;BME280;67261;53.132;18.006;2023-03-29T07:33:11;101508.88;;;18.82;21.72
77005;BME280;67261;53.132;18.006;2023-03-29T07:35:59;101508.42;;;19.00;21.48
77005;BME280;67261;53.132;18.006;2023-03-29T07:38:28;101509.25;;;19.07;21.45
77005;BME280;67261;53.132;18.006;2023-03-29T07:41:03;101509.30;;;18.83;21.62
77005;BME280;67261;53.132;18.006;2023-03-29T07:43:49;101507.01;;;18.97;21.76
77005;BME280;67261;53.132;18.006;2023-03-29T07:46:23;101501.41;;;19.09;21.66
77005;BME280;67261;53.132;18.006;2023-03-29T07:49:16;101498.36;;;18.86;21.61
77005;BME280;67261;53.132;18.006;2023-03-29T07:51:43;101498.97;;;18.47;21.83
77005;BME280;67261;53.132;18.006;2023-03-29T07:54:13;101499.40;;;18.40;21.96
77005;BME280;67261;53.132;18.006;2023-03-29T07:56:47;101501.50;;;18.20;22.14
77005;BME280;67261;53.132;18.006;2023-03-29T07:59:24;101504.02;;;17.49;22.78
77005;BME280;67261;53.132;18.006;2023-03-29T08:02:03;101503.99;;;16.98;23.04
77005;BME280;67261;53.132;18.006;2023-03-29T08:04:34;101498.89;;;16.64;23.65
77005;BME280;67261;53.132;18.006;2023-03-29T08:07:17;101503.44;;;16.03;23.75
77005;BME280;67261;53.132;18.006;2023-03-29T08:09:54;101505.14;;;15.41;24.17
77005;BME280;67261;53.132;18.006;2023-03-29T08:12:27;101501.70;;;14.73;24.75
77005;BME280;67261;53.132;18.006;2023-03-29T08:14:56;101504.33;;;14.26;25.26
77005;BME280;67261;53.132;18.006;2023-03-29T08:17:32;101504.62;;;13.72;25.76
77005;BME280;67261;53.132;18.006;2023-03-29T08:20:03;101504.04;;;13.23;25.93
77005;BME280;67261;53.132;18.006;2023-03-29T08:22:32;101506.13;;;12.69;26.60
77005;BME280;67261;53.132;18.006;2023-03-29T08:25:23;101502.66;;;12.13;27.12
77005;BME280;67261;53.132;18.006;2023-03-29T08:27:52;101501.54;;;11.72;27.50
77005;BME280;67261;53.132;18.006;2023-03-29T08:30:35;101497.98;;;11.34;28.10
77005;BME280;67261;53.132;18.006;2023-03-29T08:33:03;101501.20;;;11.12;28.47
77005;BME280;67261;53.132;18.006;2023-03-29T08:35:30;101495.84;;;10.95;28.74
77005;BME280;67261;53.132;18.006;2023-03-29T08:38:16;101492.81;;;10.80;28.89
77005;BME280;67261;53.132;18.006;2023-03-29T08:40:47;101491.77;;;10.68;29.26
77005;BME280;67261;53.132;18.006;2023-03-29T08:48:59;101480.48;;;10.47;29.89
77005;BME280;67261;53.132;18.006;2023-03-29T08:51:32;101481.36;;;10.39;30.05
77005;BME280;67261;53.132;18.006;2023-03-29T08:54:14;101479.23;;;10.29;30.35
77005;BME280;67261;53.132;18.006;2023-03-29T09:03:43;101478.00;;;9.80;31.19
77005;BME280;67261;53.132;18.006;2023-03-29T09:06:20;101482.85;;;9.77;31.50
77005;BME280;67261;53.132;18.006;2023-03-29T09:08:50;101479.71;;;9.71;31.53
77005;BME280;67261;53.132;18.006;2023-03-29T09:14:14;101478.81;;;9.45;31.78
77005;BME280;67261;53.132;18.006;2023-03-29T09:20:07;101476.36;;;9.49;32.09
77005;BME280;67261;53.132;18.006;2023-03-29T09:28:03;101463.52;;;9.45;32.52
77005;BME280;67261;53.132;18.006;2023-03-29T09:33:45;101461.42;;;9.34;33.41
77005;BME280;67261;53.132;18.006;2023-03-29T09:36:34;101463.75;;;9.27;33.34
77005;BME280;67261;53.132;18.006;2023-03-29T09:39:08;101457.23;;;9.21;33.64
77005;BME280;67261;53.132;18.006;2023-03-29T09:42:00;101449.92;;;9.18;33.86
77005;BME280;67261;53.132;18.006;2023-03-29T09:44:34;101447.80;;;9.18;33.94
77005;BME280;67261;53.132;18.006;2023-03-29T09:49:50;101445.73;;;9.15;34.19
77005;BME280;67261;53.132;18.006;2023-03-29T09:52:19;101445.73;;;9.19;34.08
77005;BME280;67261;53.132;18.006;2023-03-29T09:55:00;101440.17;;;9.24;34.14
77005;BME280;67261;53.132;18.006;2023-03-29T09:57:39;101436.30;;;9.28;34.19
77005;BME280;67261;53.132;18.006;2023-03-29T10:00:07;101435.54;;;9.31;34.25
77005;BME280;67261;53.132;18.006;2023-03-29T10:02:52;101435.79;;;9.32;34.27
77005;BME280;67261;53.132;18.006;2023-03-29T10:05:24;101433.98;;;9.27;34.60
77005;BME280;67261;53.132;18.006;2023-03-29T10:07:53;101436.20;;;9.23;34.72
77005;BME280;67261;53.132;18.006;2023-03-29T10:10:30;101433.44;;;9.23;34.76
77005;BME280;67261;53.132;18.006;2023-03-29T10:13:03;101427.21;;;9.25;34.63
77005;BME280;67261;53.132;18.006;2023-03-29T10:15:31;101425.16;;;9.26;34.84
77005;BME280;67261;53.132;18.006;2023-03-29T10:18:01;101424.39;;;9.25;34.87
77005;BME280;67261;53.132;18.006;2023-03-29T10:20:37;101422.67;;;9.22;34.77
77005;BME280;67261;53.132;18.006;2023-03-29T10:23:06;101416.06;;;9.23;34.82
77005;BME280;67261;53.132;18.006;2023-03-29T10:25:37;101416.16;;;9.24;34.63
77005;BME280;67261;53.132;18.006;2023-03-29T10:28:14;101420.79;;;9.28;35.07
77005;BME280;67261;53.132;18.006;2023-03-29T10:30:45;101422.23;;;9.32;35.40
77005;BME280;67261;53.132;18.006;2023-03-29T10:33:18;101417.64;;;9.36;35.25
77005;BME280;67261;53.132;18.006;2023-03-29T10:35:47;101412.20;;;9.38;35.01
77005;BME280;67261;53.132;18.006;2023-03-29T10:38:19;101408.52;;;9.41;35.32
77005;BME280;67261;53.132;18.006;2023-03-29T10:40:52;101404.95;;;9.44;35.04
77005;BME280;67261;53.132;18.006;2023-03-29T10:43:22;101399.70;;;9.45;35.10
77005;BME280;67261;53.132;18.006;2023-03-29T10:45:55;101397.34;;;9.48;35.20
77005;BME280;67261;53.132;18.006;2023-03-29T10:48:27;101390.32;;;9.54;35.21
77005;BME280;67261;53.132;18.006;2023-03-29T10:51:00;101394.71;;;9.62;35.08
77005;BME280;67261;53.132;18.006;2023-03-29T10:53:31;101392.77;;;9.69;35.11
77005;BME280;67261;53.132;18.006;2023-03-29T10:59:13;101390.81;;;9.75;35.05
77005;BME280;67261;53.132;18.006;2023-03-29T11:07:38;101378.64;;;9.79;35.43
77005;BME280;67261;53.132;18.006;2023-03-29T11:33:03;101347.39;;;9.82;36.01
77005;BME280;67261;53.132;18.006;2023-03-29T11:35:56;101343.55;;;9.88;35.88
77005;BME280;67261;53.132;18.006;2023-03-29T11:38:52;101333.44;;;9.86;35.96
77005;BME280;67261;53.132;18.006;2023-03-29T11:41:29;101329.66;;;9.87;36.06
77005;BME280;67261;53.132;18.006;2023-03-29T11:46:55;101323.32;;;10.00;36.11
77005;BME280;67261;53.132;18.006;2023-03-29T11:49:44;101319.75;;;10.07;36.23
77005;BME280;67261;53.132;18.006;2023-03-29T11:57:35;101300.40;;;10.14;36.27
77005;BME280;67261;53.132;18.006;2023-03-29T12:00:12;101302.35;;;10.20;36.09
77005;BME280;67261;53.132;18.006;2023-03-29T12:02:46;101303.60;;;10.18;36.10
77005;BME280;67261;53.132;18.006;2023-03-29T12:08:04;101295.58;;;10.21;36.31
77005;BME280;67261;53.132;18.006;2023-03-29T12:10:36;101289.00;;;10.36;36.27
77005;BME280;67261;53.132;18.006;2023-03-29T12:13:20;101287.27;;;10.55;36.13
77005;BME280;67261;53.132;18.006;2023-03-29T12:15:53;101286.74;;;10.72;36.05
77005;BME280;67261;53.132;18.006;2023-03-29T12:18:37;101283.77;;;10.85;35.86
77005;BME280;67261;53.132;18.006;2023-03-29T12:21:14;101277.23;;;10.94;35.71
77005;BME280;67261;53.132;18.006;2023-03-29T12:23:44;101271.73;;;11.10;35.61
77005;BME280;67261;53.132;18.006;2023-03-29T12:29:01;101264.98;;;11.45;35.34
77005;BME280;67261;53.132;18.006;2023-03-29T12:31:47;101265.36;;;11.64;35.05
77005;BME280;67261;53.132;18.006;2023-03-29T12:40:39;101265.60;;;11.88;34.79
77005;BME280;67261;53.132;18.006;2023-03-29T12:43:47;101259.98;;;11.97;34.82
77005;BME280;67261;53.132;18.006;2023-03-29T12:46:34;101267.00;;;12.01;35.03
77005;BME280;67261;53.132;18.006;2023-03-29T12:49:12;101262.88;;;12.04;34.62
77005;BME280;67261;53.132;18.006;2023-03-29T12:51:41;101255.46;;;12.02;34.53
77005;BME280;67261;53.132;18.006;2023-03-29T12:54:14;101258.48;;;12.01;34.67
77005;BME280;67261;53.132;18.006;2023-03-29T12:59:35;101257.30;;;12.08;34.79
77005;BME280;67261;53.132;18.006;2023-03-29T13:04:55;101250.34;;;12.10;34.84
77005;BME280;67261;53.132;18.006;2023-03-29T13:09:55;101246.45;;;11.90;35.05
77005;BME280;67261;53.132;18.006;2023-03-29T13:12:37;101245.50;;;11.82;34.78
77005;BME280;67261;53.132;18.006;2023-03-29T13:17:43;101243.52;;;11.69;34.88
77005;BME280;67261;53.132;18.006;2023-03-29T13:20:46;101244.74;;;11.62;35.16
77005;BME280;67261;53.132;18.006;2023-03-29T13:30:01;101234.16;;;11.36;35.40
77005;BME280;67261;53.132;18.006;2023-03-29T13:35:33;101227.03;;;11.43;35.73
77005;BME280;67261;53.132;18.006;2023-03-29T13:38:18;101220.36;;;11.50;35.82
77005;BME280;67261;53.132;18.006;2023-03-29T13:41:02;101217.35;;;11.54;35.92
77005;BME280;67261;53.132;18.006;2023-03-29T13:46:33;101215.18;;;11.58;35.62
77005;BME280;67261;53.132;18.006;2023-03-29T13:49:13;101209.80;;;11.55;35.81
77005;BME280;67261;53.132;18.006;2023-03-29T13:52:03;101211.45;;;11.53;35.67
77005;BME280;67261;53.132;18.006;2023-03-29T13:57:32;101200.77;;;11.54;35.91
77005;BME280;67261;53.132;18.006;2023-03-29T14:02:59;101193.38;;;11.47;36.04
77005;BME280;67261;53.132;18.006;2023-03-29T14:05:31;101191.21;;;11.45;36.04
77005;BME280;67261;53.132;18.006;2023-03-29T14:08:11;101194.15;;;11.42;36.16
77005;BME280;67261;53.132;18.006;2023-03-29T14:10:40;101194.74;;;11.36;36.15
77005;BME280;67261;53.132;18.006;2023-03-29T14:13:17;101187.49;;;11.27;36.08
77005;BME280;67261;53.132;18.006;2023-03-29T14:22:01;101169.73;;;11.10;36.40
77005;BME280;67261;53.132;18.006;2023-03-29T14:24:44;101168.82;;;11.06;36.58
77005;BME280;67261;53.132;18.006;2023-03-29T14:27:14;101171.48;;;11.05;36.38
77005;BME280;67261;53.132;18.006;2023-03-29T14:29:47;101166.80;;;11.05;36.45
77005;BME280;67261;53.132;18.006;2023-03-29T14:32:27;101164.63;;;11.06;36.62
77005;BME280;67261;53.132;18.006;2023-03-29T14:34:55;101159.99;;;11.06;36.87
77005;BME280;67261;53.132;18.006;2023-03-29T14:37:25;101157.55;;;11.10;36.88
77005;BME280;67261;53.132;18.006;2023-03-29T14:39:53;101151.45;;;11.08;36.88
77005;BME280;67261;53.132;18.006;2023-03-29T14:42:26;101153.53;;;11.07;36.80
77005;BME280;67261;53.132;18.006;2023-03-29T14:45:01;101153.53;;;11.07;36.70
77005;BME280;67261;53.132;18.006;2023-03-29T14:47:32;101148.86;;;11.09;36.86
77005;BME280;67261;53.132;18.006;2023-03-29T14:50:00;101142.09;;;11.10;36.88
77005;BME280;67261;53.132;18.006;2023-03-29T14:52:29;101138.90;;;11.12;36.87
77005;BME280;67261;53.132;18.006;2023-03-29T14:55:00;101131.78;;;11.14;36.83
77005;BME280;67261;53.132;18.006;2023-03-29T14:57:34;101133.88;;;11.18;36.81
77005;BME280;67261;53.132;18.006;2023-03-29T15:00:43;101132.46;;;11.20;36.72
77005;BME280;67261;53.132;18.006;2023-03-29T15:03:14;101126.38;;;11.19;36.67
77005;BME280;67261;53.132;18.006;2023-03-29T15:05:46;101121.69;;;11.19;36.63
77005;BME280;67261;53.132;18.006;2023-03-29T15:08:28;101116.98;;;11.19;36.74
77005;BME280;67261;53.132;18.006;2023-03-29T15:10:57;101112.56;;;11.13;36.63
77005;BME280;67261;53.132;18.006;2023-03-29T15:13:25;101105.61;;;11.08;36.95
77005;BME280;67261;53.132;18.006;2023-03-29T15:15:59;101107.34;;;11.05;37.01
77005;BME280;67261;53.132;18.006;2023-03-29T15:18:30;101106.91;;;11.02;36.96
77005;BME280;67261;53.132;18.006;2023-03-29T15:21:00;101102.02;;;10.99;37.18
77005;BME280;67261;53.132;18.006;2023-03-29T15:26:12;101104.92;;;10.95;37.32
77005;BME280;67261;53.132;18.006;2023-03-29T15:28:51;101106.30;;;10.92;37.43
77005;BME280;67261;53.132;18.006;2023-03-29T15:31:25;101101.44;;;10.87;37.42
77005;BME280;67261;53.132;18.006;2023-03-29T15:36:29;101093.51;;;10.85;37.43
77005;BME280;67261;53.132;18.006;2023-03-29T15:38:57;101090.98;;;10.82;37.76
77005;BME280;67261;53.132;18.006;2023-03-29T15:41:24;101090.94;;;10.79;37.80
77005;BME280;67261;53.132;18.006;2023-03-29T15:43:54;101086.48;;;10.73;38.01